Skip Navigation Links
NOAA logo - Click to go to the NOAA homepage
NOAA's National Weather Service
Alaska Aviation Weather Unit
  NWS logo - Click to go to the NWS homepage
Left Navbar Graphic     02 AKDT = 10 GMT

   
NOAA is celebrating 200 years of science, service, and stewardship. Visit the NOAA 200th celebration Web site to learn more.
USA.gov is the U.S. Government's official Web portal to all Federal, state and local government Web resources and services.
Facebook
NWS on Facebook

AAWU Home :: Display TAF Add Bookmark
METAR PAOH 270456Z AUTO 10004KT 10SM CLR M01/M03 A2960 RMK AO2 SLP023
     T10111028 FZRANO=

METAR PAOH 270556Z AUTO 10004KT 10SM FEW120 M02/M03 A2960 RMK AO2 SLP026
     T10171028 10056 21022 53000 FZRANO=

METAR PAOH 270656Z AUTO 10003KT 10SM OVC110 M02/M03 A2960 RMK AO2
 SLP026 T10171028 FZRANO=

METAR PAOH 270756Z AUTO 08003KT 10SM OVC095 M01/M02 A2960 RMK AO2 SLP026
     T10111022 400561022 FZRANO=

METAR PAOH 270856Z AUTO 00000KT 10SM OVC060 M01/M02 A2961 RMK AO2 SLP027
     T10061017 53001 FZRANO=

METAR PAOH 270956Z AUTO 00000KT 10SM OVC050 M01/M02 A2961 RMK AO2 SLP026
     T10061017 FZRANO=


NOAA's National Weather Service
Alaska Aviation Weather Unit
6930 Sand Lake Road
Anchorage, AK 99502-1845
Disclaimer
Credits
Glossary
Privacy Policy
About Us
Career Opportunities
Contact AAWU Internet Services Site last modified: April, 17th 2012